Time;durP1;ratioP1;P1;durP2;ratioP2;P2;SDS_P1;SDS_P2;PMS_P1;PMS_P2;Temp;Humidity;BMP_temperature;BMP_pressure;BME280_temperature;BME280_humidity;BME280_pressure;Samples;Min_cycle;Max_cycle;Signal;HPM_P1;HPM_P2
2022/12/21 00:00:28;;;;;;;9.27;5.65;;;7.90;7.50;;;;;;7360571;19;20022;-71
2022/12/21 00:03:01;;;;;;;10.18;6.32;;;7.90;8.20;;;;;;7363410;19;20010;-71
2022/12/21 00:05:31;;;;;;;11.27;6.95;;;7.80;9.10;;;;;;7362600;19;20033;-71
2022/12/21 00:08:00;;;;;;;9.55;6.20;;;7.90;8.70;;;;;;7364038;19;20021;-71
2022/12/21 00:10:30;;;;;;;10.70;6.45;;;7.70;9.30;;;;;;7385405;19;20055;-71
2022/12/21 00:13:00;;;;;;;9.63;6.22;;;7.80;11.40;;;;;;7367060;19;20025;-71
2022/12/21 00:15:30;;;;;;;15.35;7.13;;;7.70;12.10;;;;;;7362914;19;20011;-71
2022/12/21 00:18:02;;;;;;;9.65;7.20;;;7.60;14.30;;;;;;7362460;19;20018;-71
2022/12/21 00:20:32;;;;;;;12.05;7.72;;;7.50;16.00;;;;;;7361714;19;20014;-71
2022/12/21 00:23:02;;;;;;;10.82;7.53;;;7.40;16.20;;;;;;7363113;19;20094;-71
2022/12/21 00:25:32;;;;;;;11.68;8.00;;;7.40;16.00;;;;;;7383776;19;20030;-71
2022/12/21 00:28:01;;;;;;;13.13;8.43;;;7.40;15.60;;;;;;7362678;19;20020;-70
2022/12/21 00:30:31;;;;;;;12.95;7.85;;;7.30;15.60;;;;;;7361478;19;20011;-71
2022/12/21 00:33:04;;;;;;;9.85;8.27;;;7.40;15.70;;;;;;7363178;19;20019;-71
2022/12/21 00:35:33;;;;;;;12.02;8.13;;;7.30;15.50;;;;;;7362809;19;20115;-70
2022/12/21 00:38:03;;;;;;;12.90;8.85;;;7.30;15.80;;;;;;7362948;19;20015;-71
2022/12/21 00:40:33;;;;;;;12.48;8.18;;;7.30;16.20;;;;;;7365979;19;20025;-71
2022/12/21 00:43:03;;;;;;;13.80;8.35;;;7.30;16.90;;;;;;7383892;19;20340;-71
2022/12/21 00:45:33;;;;;;;11.80;8.63;;;7.40;16.00;;;;;;7362036;19;20470;-71
2022/12/21 00:48:08;;;;;;;13.70;8.00;;;7.50;15.60;;;;;;7362675;19;20088;-70
2022/12/21 00:50:37;;;;;;;;;;;7.50;15.50;;;;;;7363629;19;20019;-70
2022/12/21 00:53:11;;;;;;;11.30;8.65;;;7.40;15.80;;;;;;7363693;19;19931;-71
2022/12/21 00:55:41;;;;;;;13.20;8.88;;;7.40;15.90;;;;;;7362213;19;20086;-71
2022/12/21 00:58:11;;;;;;;13.77;8.40;;;7.40;16.70;;;;;;7382931;19;20035;-71
2022/12/21 01:00:41;;;;;;;10.20;8.23;;;7.40;17.20;;;;;;7360702;19;20515;-70
2022/12/21 01:03:13;;;;;;;14.30;9.18;;;7.50;17.20;;;;;;7361453;19;20022;-71
2022/12/21 01:05:43;;;;;;;11.80;8.77;;;7.50;17.50;;;;;;7362603;19;20018;-71
2022/12/21 01:08:13;;;;;;;13.77;8.68;;;7.40;17.70;;;;;;7364566;19;20027;-71
2022/12/21 01:10:43;;;;;;;12.63;8.85;;;7.40;18.20;;;;;;7361070;19;20053;-72
2022/12/21 01:13:14;;;;;;;13.23;9.38;;;7.40;19.10;;;;;;7384230;19;20022;-72
2022/12/21 01:15:45;;;;;;;13.75;9.40;;;7.30;21.00;;;;;;7360175;19;20026;-71
2022/12/21 01:18:18;;;;;;;12.25;8.68;;;7.30;21.20;;;;;;7360085;19;20434;-72
2022/12/21 01:20:50;;;;;;;13.40;9.35;;;7.30;23.60;;;;;;7360259;19;20070;-72
2022/12/21 01:23:21;;;;;;;16.15;9.27;;;7.20;25.40;;;;;;7361467;19;20022;-73
2022/12/21 01:25:51;;;;;;;11.98;8.75;;;7.30;27.80;;;;;;7361120;19;20018;-73
2022/12/21 01:28:21;;;;;;;14.30;8.55;;;7.30;28.00;;;;;;7382096;19;20021;-73
2022/12/21 01:30:51;;;;;;;14.52;8.90;;;7.30;29.40;;;;;;7360940;19;20015;-73
2022/12/21 01:33:23;;;;;;;12.82;8.73;;;7.30;30.10;;;;;;7361348;19;20019;-73
2022/12/21 01:35:53;;;;;;;16.92;9.18;;;7.20;31.20;;;;;;7361211;19;20014;-73
2022/12/21 01:38:23;;;;;;;13.48;9.05;;;7.20;32.00;;;;;;7360251;19;20011;-71
2022/12/21 01:40:53;;;;;;;16.00;9.65;;;7.20;33.30;;;;;;7361326;19;20204;-72
2022/12/21 01:43:42;;;;;;;14.60;9.52;;;7.20;35.00;;;;;;7382866;19;20102;-71
2022/12/21 01:46:15;;;;;;;13.10;9.27;;;7.20;37.20;;;;;;7361199;19;20014;-71
2022/12/21 01:48:54;;;;;;;14.93;9.02;;;7.20;39.10;;;;;;7359709;19;20015;-72
2022/12/21 01:51:26;;;;;;;12.52;8.68;;;7.30;40.50;;;;;;7362875;19;20043;-71
2022/12/21 01:53:59;;;;;;;14.15;9.00;;;7.30;40.40;;;;;;7362254;19;20027;-71
2022/12/21 01:56:33;;;;;;;10.50;8.10;;;7.30;40.70;;;;;;7360955;19;20015;-71
2022/12/21 01:59:11;;;;;;;13.77;8.73;;;7.20;41.40;;;;;;7359615;19;20486;-71
2022/12/21 02:01:41;;;;;;;12.70;8.50;;;7.20;42.50;;;;;;7359498;19;20021;-72
2022/12/21 02:04:13;;;;;;;13.93;9.18;;;7.30;43.70;;;;;;7385524;19;20386;-71
2022/12/21 02:06:48;;;;;;;15.50;9.32;;;7.30;43.70;;;;;;7359549;19;20632;-71
2022/12/21 02:09:19;;;;;;;14.38;9.13;;;7.30;44.10;;;;;;7358401;19;20011;-71
2022/12/21 02:11:49;;;;;;;14.85;9.88;;;7.20;44.40;;;;;;7359848;19;20018;-71
2022/12/21 02:14:19;;;;;;;15.02;9.48;;;7.10;44.80;;;;;;7362490;19;20018;-72
2022/12/21 02:17:00;;;;;;;13.30;9.77;;;7.10;45.50;;;;;;7359911;19;20018;-72
2022/12/21 02:20:03;;;;;;;18.73;10.15;;;7.10;46.30;;;;;;7380149;19;20021;-71
2022/12/21 02:22:58;;;;;;;15.90;10.38;;;7.00;46.70;;;;;;7254893;19;2004292;-71
2022/12/21 02:25:51;;;;;;;15.88;10.05;;;7.00;47.40;;;;;;7382260;19;20787;-71
2022/12/21 02:28:59;;;;;;;15.80;10.50;;;7.00;47.90;;;;;;7363396;19;20018;-71
2022/12/21 02:31:36;;;;;;;17.27;10.85;;;7.00;47.90;;;;;;7264088;19;2004464;-72
2022/12/21 02:34:14;;;;;;;15.63;10.35;;;6.90;48.30;;;;;;7389273;19;20032;-70
2022/12/21 02:36:50;;;;;;;18.20;10.98;;;6.90;48.40;;;;;;7365284;19;20495;-71
2022/12/21 02:39:28;;;;;;;15.38;10.80;;;6.90;49.50;;;;;;7364293;19;20478;-71
2022/12/21 02:42:05;;;;;;;15.55;11.02;;;7.00;50.00;;;;;;7366551;19;20026;-72
2022/12/21 02:44:47;;;;;;;14.43;10.85;;;7.00;50.30;;;;;;7366463;19;20014;-72
2022/12/21 02:47:23;;;;;;;15.68;11.10;;;6.90;50.50;;;;;;7366704;19;20018;-72
2022/12/21 02:49:58;;;;;;;16.90;11.18;;;7.00;51.30;;;;;;7364482;19;20028;-71
2022/12/21 02:52:34;;;;;;;16.90;11.55;;;7.00;51.90;;;;;;7391304;19;20466;-71
2022/12/21 02:55:04;;;;;;;16.30;10.32;;;7.00;52.00;;;;;;7365687;19;20014;-71
2022/12/21 02:57:36;;;;;;;18.90;11.90;;;7.10;52.90;;;;;;7364889;19;20029;-71
2022/12/21 03:00:10;;;;;;;;;;;7.00;52.50;;;;;;7368617;19;20482;-71
2022/12/21 03:06:21;;;;;;;13.90;10.27;;;7.00;54.10;;;;;;7363802;19;20072;-71
2022/12/21 03:09:09;;;;;;;14.80;11.07;;;7.00;54.20;;;;;;7364206;19;20529;-72
2022/12/21 03:11:51;;;;;;;14.93;11.02;;;7.00;54.60;;;;;;7365362;19;20018;-72
2022/12/21 03:14:30;;;;;;;15.75;11.45;;;6.90;54.90;;;;;;7367215;19;20030;-72
2022/12/21 03:17:04;;;;;;;15.00;10.77;;;6.90;55.40;;;;;;7365516;19;20014;-72
2022/12/21 03:19:46;;;;;;;16.80;11.85;;;7.00;56.00;;;;;;7364564;19;20022;-73
2022/12/21 03:22:25;;;;;;;18.15;12.38;;;7.00;56.90;;;;;;7386907;19;20010;-71
2022/12/21 03:25:01;;;;;;;19.45;12.18;;;7.10;57.30;;;;;;7364719;19;20037;-71
2022/12/21 03:27:36;;;;;;;17.73;11.77;;;7.10;57.50;;;;;;7364539;19;20434;-71
2022/12/21 03:30:11;;;;;;;17.02;11.65;;;7.10;57.70;;;;;;7363339;19;20011;-71
2022/12/21 03:32:44;;;;;;;17.00;11.93;;;7.10;58.50;;;;;;7364844;19;20871;-72
2022/12/21 03:35:23;;;;;;;16.58;10.73;;;7.10;58.70;;;;;;7365254;19;20017;-72
2022/12/21 03:37:56;;;;;;;17.60;10.93;;;7.20;59.80;;;;;;7364460;19;20004;-72
2022/12/21 03:40:30;;;;;;;19.55;11.50;;;7.10;59.50;;;;;;7383502;19;20015;-72
2022/12/21 03:43:06;;;;;;;16.65;10.25;;;7.20;59.90;;;;;;7362611;19;20347;-72
2022/12/21 03:45:41;;;;;;;16.10;11.25;;;7.30;60.50;;;;;;7363604;19;20520;-72
2022/12/21 03:48:16;;;;;;;22.25;11.00;;;7.20;60.20;;;;;;7364054;19;20034;-72
2022/12/21 03:50:52;;;;;;;18.75;10.27;;;7.20;60.30;;;;;;7365695;19;20013;-72
2022/12/21 03:53:32;;;;;;;13.65;9.75;;;7.30;61.30;;;;;;7364694;19;20731;-72
2022/12/21 03:56:06;;;;;;;16.13;10.20;;;7.30;61.50;;;;;;7365579;19;20541;-72
2022/12/21 03:58:38;;;;;;;16.77;9.73;;;7.40;62.80;;;;;;7366058;19;20021;-72
2022/12/21 04:01:18;;;;;;;14.32;10.02;;;7.40;62.20;;;;;;7385276;19;20021;-72
2022/12/21 04:03:55;;;;;;;12.15;9.32;;;7.40;62.80;;;;;;7362948;19;20530;-72
2022/12/21 04:06:34;;;;;;;15.52;10.18;;;7.30;62.60;;;;;;7363224;19;20509;-72
2022/12/21 04:09:04;;;;;;;12.38;9.20;;;7.40;63.10;;;;;;7362350;19;20014;-72
2022/12/21 04:14:20;;;;;;;16.92;9.15;;;7.40;63.80;;;;;;7364630;19;20734;-72
2022/12/21 04:16:50;;;;;;;14.88;9.65;;;7.40;63.90;;;;;;7363677;19;20018;-72
2022/12/21 04:28:06;;;;;;;15.23;9.45;;;7.40;64.20;;;;;;7361868;19;20017;-72
2022/12/21 04:30:46;;;;;;;13.52;8.27;;;7.40;64.30;;;;;;7362997;19;20142;-72
2022/12/21 04:33:17;;;;;;;10.55;8.77;;;7.50;64.40;;;;;;7362299;19;20019;-72
2022/12/21 04:38:35;;;;;;;13.30;8.55;;;7.60;65.20;;;;;;7361714;19;20015;-72
2022/12/21 04:41:05;;;;;;;12.32;7.75;;;7.70;65.60;;;;;;7362974;19;20018;-72
2022/12/21 04:43:38;;;;;;;14.48;7.85;;;7.70;65.70;;;;;;7360619;19;20388;-72
2022/12/21 04:46:10;;;;;;;10.30;7.60;;;7.80;66.20;;;;;;7383692;19;20021;-72
2022/12/21 04:48:40;;;;;;;10.40;7.38;;;7.80;66.20;;;;;;7360812;19;20151;-72
2022/12/21 04:51:12;;;;;;;12.85;7.72;;;7.70;66.00;;;;;;7361816;19;20016;-72
2022/12/21 04:53:45;;;;;;;11.55;7.28;;;7.80;66.50;;;;;;7364981;19;20007;-72
2022/12/21 04:56:14;;;;;;;11.15;7.47;;;7.80;66.70;;;;;;7362387;19;20010;-72
2022/12/21 04:58:45;;;;;;;12.50;7.47;;;7.80;66.70;;;;;;7361219;19;20087;-73
2022/12/21 05:01:17;;;;;;;14.85;7.80;;;7.90;66.90;;;;;;7383499;19;20018;-73
2022/12/21 05:03:47;;;;;;;12.75;7.30;;;7.90;67.00;;;;;;7359996;19;20035;-72
2022/12/21 05:06:18;;;;;;;11.93;7.43;;;7.80;66.90;;;;;;7362170;19;20526;-72
2022/12/21 05:08:51;;;;;;;13.35;7.25;;;7.90;67.10;;;;;;7360757;19;20076;-72
2022/12/21 05:11:23;;;;;;;12.75;7.00;;;8.00;67.50;;;;;;7362450;19;20011;-72
2022/12/21 05:13:53;;;;;;;11.93;8.07;;;7.90;67.40;;;;;;7364573;19;20024;-72
2022/12/21 05:16:26;;;;;;;13.35;7.57;;;7.90;67.50;;;;;;7383448;19;20021;-72
2022/12/21 05:18:59;;;;;;;13.55;7.47;;;7.90;67.90;;;;;;7359706;19;20015;-72
2022/12/21 05:21:28;;;;;;;11.43;8.05;;;8.00;68.40;;;;;;7361015;19;20021;-72
2022/12/21 05:24:01;;;;;;;12.32;7.68;;;7.80;67.90;;;;;;7360768;19;20445;-73
2022/12/21 05:26:30;;;;;;;11.60;7.28;;;7.80;68.00;;;;;;7361757;19;20023;-73
2022/12/21 05:29:00;;;;;;;10.63;7.55;;;7.70;68.20;;;;;;7360321;19;20082;-73
2022/12/21 05:31:30;;;;;;;15.48;9.65;;;7.70;68.20;;;;;;7382560;19;20014;-72
2022/12/21 05:34:00;;;;;;;14.63;8.57;;;7.80;68.70;;;;;;7360711;19;20015;-72
2022/12/21 05:36:31;;;;;;;13.50;7.50;;;7.70;68.60;;;;;;7360941;19;20014;-72
2022/12/21 05:39:03;;;;;;;12.38;7.68;;;7.80;68.80;;;;;;7359453;19;20910;-72
2022/12/21 05:41:33;;;;;;;12.02;7.07;;;7.90;69.50;;;;;;7361201;19;20015;-72
2022/12/21 05:44:03;;;;;;;11.40;7.63;;;7.80;69.30;;;;;;7359772;19;20089;-73
2022/12/21 05:46:33;;;;;;;10.48;7.63;;;7.80;69.30;;;;;;7366660;19;20354;-72
2022/12/21 05:49:04;;;;;;;10.88;7.13;;;7.80;69.40;;;;;;7383621;19;20382;-72
2022/12/21 05:51:33;;;;;;;13.82;7.40;;;7.90;70.00;;;;;;7362698;19;20015;-72
2022/12/21 05:54:08;;;;;;;11.15;7.30;;;7.90;69.90;;;;;;7361361;19;20034;-73
2022/12/21 05:56:38;;;;;;;10.35;6.93;;;7.90;70.00;;;;;;7360178;19;20122;-72
2022/12/21 05:59:08;;;;;;;10.50;6.88;;;7.90;70.00;;;;;;7359366;19;20482;-72
2022/12/21 06:01:38;;;;;;;10.50;6.93;;;8.00;70.30;;;;;;7360237;19;20014;-73
2022/12/21 06:04:08;;;;;;;11.57;7.07;;;8.00;70.40;;;;;;7386568;19;20043;-73
2022/12/21 06:06:38;;;;;;;9.85;6.78;;;7.90;70.30;;;;;;7367325;19;20014;-72
2022/12/21 06:09:11;;;;;;;12.27;6.75;;;8.00;70.40;;;;;;7365048;19;20085;-72
2022/12/21 06:11:40;;;;;;;12.32;7.22;;;8.00;70.50;;;;;;7366652;19;20015;-72
2022/12/21 06:14:10;;;;;;;12.10;7.47;;;8.10;70.80;;;;;;7368278;19;20015;-73
2022/12/21 06:16:40;;;;;;;15.13;7.95;;;8.10;70.70;;;;;;7367440;19;20014;-73
2022/12/21 06:19:10;;;;;;;11.90;7.63;;;8.00;70.60;;;;;;7386573;19;20498;-72
2022/12/21 06:21:40;;;;;;;16.73;7.60;;;8.10;70.70;;;;;;7366743;19;20011;-73
2022/12/21 06:24:13;;;;;;;12.23;6.88;;;8.10;70.70;;;;;;7366049;19;20018;-73
2022/12/21 06:26:43;;;;;;;12.55;7.80;;;8.10;70.70;;;;;;7366074;19;20541;-73
2022/12/21 06:29:18;;;;;;;14.43;7.50;;;8.10;71.20;;;;;;7362446;19;20747;-73
2022/12/21 06:31:48;;;;;;;14.63;6.85;;;8.20;71.20;;;;;;7389026;19;20029;-73
2022/12/21 06:34:18;;;;;;;12.48;7.68;;;8.20;71.10;;;;;;7366172;19;20044;-72
2022/12/21 06:36:48;;;;;;;15.00;7.07;;;8.10;71.10;;;;;;7367449;19;20458;-72
2022/12/21 06:39:20;;;;;;;13.98;7.47;;;8.20;71.10;;;;;;7365782;19;20031;-72
2022/12/21 06:41:50;;;;;;;11.88;7.25;;;8.10;71.10;;;;;;7367337;19;20120;-72
2022/12/21 06:44:20;;;;;;;14.65;7.68;;;8.10;71.30;;;;;;7363145;19;20006;-73
2022/12/21 06:46:49;;;;;;;11.48;6.90;;;8.20;71.30;;;;;;7389819;19;20066;-73
2022/12/21 06:49:19;;;;;;;16.13;7.22;;;8.20;71.40;;;;;;7368456;19;20399;-74
2022/12/21 06:51:50;;;;;;;14.77;7.03;;;8.10;71.20;;;;;;7365063;19;20034;-73
2022/12/21 06:54:22;;;;;;;20.05;7.90;;;8.10;71.40;;;;;;7366769;19;20020;-73
2022/12/21 06:56:53;;;;;;;16.13;7.10;;;8.10;71.50;;;;;;7368753;19;20010;-73
2022/12/21 06:59:23;;;;;;;13.95;7.10;;;8.20;71.50;;;;;;7384317;19;20014;-74
2022/12/21 07:01:53;;;;;;;13.13;7.10;;;8.20;71.50;;;;;;7364919;19;20014;-74
2022/12/21 07:04:24;;;;;;;13.40;7.18;;;8.20;71.50;;;;;;7364708;19;20019;-73
2022/12/21 07:06:53;;;;;;;14.10;7.13;;;8.20;71.40;;;;;;7365318;19;20057;-73
2022/12/21 07:09:26;;;;;;;18.85;7.57;;;8.20;71.60;;;;;;7364949;19;20013;-73
2022/12/21 07:11:56;;;;;;;12.75;7.80;;;8.20;71.60;;;;;;7364940;19;20022;-73
2022/12/21 07:14:25;;;;;;;15.27;7.45;;;8.30;71.80;;;;;;7389160;19;20020;-73
2022/12/21 07:16:55;;;;;;;17.80;7.28;;;8.30;71.80;;;;;;7362530;19;20007;-75
2022/12/21 07:19:26;;;;;;;11.52;6.53;;;8.30;71.80;;;;;;7361940;19;20029;-72
2022/12/21 07:21:56;;;;;;;11.90;6.63;;;8.30;71.90;;;;;;7364038;19;20482;-73
2022/12/21 07:24:28;;;;;;;12.63;7.13;;;8.30;71.80;;;;;;7360035;19;20010;-73
2022/12/21 07:26:58;;;;;;;13.52;7.63;;;8.30;71.80;;;;;;7362501;19;20017;-73
2022/12/21 07:29:28;;;;;;;13.32;6.97;;;8.30;71.90;;;;;;7381377;19;20017;-73
2022/12/21 07:31:58;;;;;;;11.70;6.82;;;8.30;71.80;;;;;;7360406;19;20051;-73
2022/12/21 07:34:27;;;;;;;14.70;7.13;;;8.40;71.90;;;;;;7360303;19;20010;-73
2022/12/21 07:36:57;;;;;;;11.25;6.45;;;8.40;72.00;;;;;;7363795;19;20014;-73
2022/12/21 07:39:30;;;;;;;12.25;6.13;;;8.40;72.00;;;;;;7363829;19;20090;-74
2022/12/21 07:41:59;;;;;;;12.07;6.50;;;8.50;72.10;;;;;;7363883;19;20486;-73
2022/12/21 07:44:29;;;;;;;10.80;6.18;;;8.60;72.40;;;;;;7384493;19;20018;-74
2022/12/21 07:46:59;;;;;;;10.82;6.28;;;8.50;72.30;;;;;;7363069;19;20019;-73
2022/12/21 07:49:29;;;;;;;11.93;6.40;;;8.60;72.50;;;;;;7361445;19;20017;-73
2022/12/21 07:51:59;;;;;;;9.55;5.70;;;8.60;72.50;;;;;;7363035;19;20014;-74
2022/12/21 07:54:31;;;;;;;11.32;6.30;;;8.70;72.60;;;;;;7363976;19;20023;-73
2022/12/21 07:57:01;;;;;;;17.50;5.95;;;8.60;72.40;;;;;;7364489;19;20448;-73
2022/12/21 07:59:31;;;;;;;17.48;6.15;;;8.60;72.50;;;;;;7386079;19;20076;-73
2022/12/21 08:02:01;;;;;;;13.07;6.18;;;8.70;73.30;;;;;;7362955;19;20095;-74
2022/12/21 08:04:31;;;;;;;11.77;6.00;;;8.70;72.70;;;;;;7362155;19;20025;-73
2022/12/21 08:07:01;;;;;;;11.27;7.68;;;8.60;72.50;;;;;;7362144;19;20431;-72
2022/12/21 08:09:35;;;;;;;19.13;7.13;;;8.60;72.40;;;;;;7362262;19;20016;-73
2022/12/21 08:12:08;;;;;;;18.98;8.13;;;8.60;72.50;;;;;;7362235;19;20022;-73
2022/12/21 08:14:46;;;;;;;14.70;6.93;;;8.60;72.40;;;;;;7366668;19;20014;-72
2022/12/21 08:17:16;;;;;;;10.45;6.07;;;8.70;72.60;;;;;;7383331;19;20035;-72
2022/12/21 08:19:46;;;;;;;9.90;4.95;;;8.80;72.70;;;;;;7359828;19;20633;-72
2022/12/21 08:22:15;;;;;;;7.55;3.90;;;8.90;73.10;;;;;;7362587;19;20038;-72
2022/12/21 08:24:48;;;;;;;9.30;4.13;;;8.90;72.80;;;;;;7359208;19;20062;-73
2022/12/21 08:27:18;;;;;;;10.55;4.03;;;9.00;73.00;;;;;;7361879;19;20007;-71
2022/12/21 08:29:48;;;;;;;7.43;4.22;;;9.00;72.80;;;;;;7360083;19;20022;-72
2022/12/21 08:32:18;;;;;;;8.45;4.80;;;9.00;72.60;;;;;;7383784;19;20014;-72
2022/12/21 08:34:48;;;;;;;9.52;4.78;;;9.00;72.40;;;;;;7361047;19;20029;-72
2022/12/21 08:37:20;;;;;;;11.27;5.15;;;9.00;72.00;;;;;;7361008;19;20007;-72
2022/12/21 08:39:53;;;;;;;16.80;9.48;;;9.10;72.30;;;;;;7360502;19;20023;-72
2022/12/21 08:42:23;;;;;;;9.93;3.72;;;9.20;72.40;;;;;;7360729;19;20608;-72
2022/12/21 08:44:58;;;;;;;8.07;3.70;;;9.20;72.10;;;;;;7360764;19;20026;-73
2022/12/21 08:47:28;;;;;;;9.07;3.53;;;9.20;71.40;;;;;;7385860;19;20010;-74
2022/12/21 08:49:58;;;;;;;4.85;3.20;;;9.30;70.90;;;;;;7358519;19;20078;-73
2022/12/21 08:52:28;;;;;;;6.88;3.33;;;9.20;70.20;;;;;;7363503;19;20016;-73
2022/12/21 08:55:01;;;;;;;6.07;2.90;;;9.20;70.00;;;;;;7364698;19;20021;-72
2022/12/21 08:57:30;;;;;;;7.32;3.22;;;9.20;69.60;;;;;;7361760;19;20089;-72
2022/12/21 09:00:01;;;;;;;5.72;3.13;;;9.30;69.50;;;;;;7360380;19;20015;-72
2022/12/21 09:02:30;;;;;;;12.10;3.85;;;9.30;68.40;;;;;;7382495;19;20018;-72
2022/12/21 09:05:01;;;;;;;6.78;4.80;;;9.30;67.90;;;;;;7358988;19;20094;-74
2022/12/21 09:07:31;;;;;;;4.40;2.95;;;9.30;67.70;;;;;;7360144;19;20504;-73
2022/12/21 09:10:03;;;;;;;4.97;2.83;;;9.30;66.40;;;;;;7359486;19;20019;-74
2022/12/21 09:12:33;;;;;;;5.20;2.80;;;9.30;66.10;;;;;;7360385;19;20014;-73
2022/12/21 09:15:03;;;;;;;4.95;2.92;;;9.30;65.70;;;;;;7359811;19;20022;-74
2022/12/21 09:17:33;;;;;;;6.38;2.90;;;9.30;64.70;;;;;;7381906;19;20018;-73
2022/12/21 09:20:03;;;;;;;5.70;3.17;;;9.30;64.20;;;;;;7357658;19;20015;-74
2022/12/21 09:22:33;;;;;;;7.15;3.15;;;9.30;64.00;;;;;;7360396;19;20018;-75
2022/12/21 09:25:06;;;;;;;6.15;3.20;;;9.30;63.00;;;;;;7358963;19;20539;-74
2022/12/21 09:27:36;;;;;;;3.65;2.83;;;9.40;62.70;;;;;;7359943;19;20045;-73
2022/12/21 09:30:07;;;;;;;8.43;3.03;;;9.40;62.00;;;;;;7358427;19;20108;-73
2022/12/21 09:32:46;;;;;;;5.60;3.30;;;9.40;61.90;;;;;;7359648;19;20060;-74
2022/12/21 09:35:16;;;;;;;7.55;3.72;;;9.40;61.20;;;;;;7381189;19;20022;-74
2022/12/21 09:37:45;;;;;;;8.40;3.35;;;9.40;61.30;;;;;;7366475;19;20010;-74
2022/12/21 09:40:21;;;;;;;7.00;3.22;;;9.30;60.90;;;;;;7364676;19;20501;-74
2022/12/21 09:43:08;;;;;;;10.93;3.55;;;9.40;61.70;;;;;;7367560;19;20445;-73
2022/12/21 09:45:49;;;;;;;5.40;3.38;;;9.40;61.90;;;;;;7366707;19;20070;-74
2022/12/21 09:48:22;;;;;;;6.63;3.55;;;9.40;61.80;;;;;;7366669;19;20822;-74
2022/12/21 09:51:00;;;;;;;5.85;3.17;;;9.30;61.30;;;;;;7370117;19;20018;-74
2022/12/21 09:53:36;;;;;;;19.00;11.87;;;9.40;62.00;;;;;;7388921;19;20014;-73
2022/12/21 09:56:09;;;;;;;12.57;5.03;;;9.40;61.40;;;;;;7367814;19;20271;-73
2022/12/21 09:58:43;;;;;;;6.80;4.07;;;9.40;61.30;;;;;;7364854;19;20011;-74
2022/12/21 10:01:21;;;;;;;4.88;3.42;;;9.50;61.10;;;;;;7367039;19;20505;-74
2022/12/21 10:04:18;;;;;;;5.80;3.95;;;9.50;61.40;;;;;;7366844;19;20021;-74
2022/12/21 10:07:29;;;;;;;8.35;4.38;;;9.60;61.80;;;;;;7366205;19;20025;-74
2022/12/21 10:10:09;;;;;;;7.10;4.47;;;9.60;61.80;;;;;;7365003;19;20007;-73
2022/12/21 10:12:50;;;;;;;9.05;4.45;;;9.60;61.20;;;;;;7366566;19;20459;-74
2022/12/21 10:15:28;;;;;;;6.30;4.43;;;9.60;61.60;;;;;;7366446;19;20074;-73
2022/12/21 10:18:09;;;;;;;7.90;4.63;;;9.60;61.30;;;;;;7366192;19;20049;-72
2022/12/21 10:20:49;;;;;;;6.95;4.60;;;9.60;61.20;;;;;;7387555;19;20025;-74
2022/12/21 10:23:24;;;;;;;5.50;4.47;;;9.70;61.40;;;;;;7366269;19;20593;-73
2022/12/21 10:25:58;;;;;;;9.43;4.45;;;9.70;61.10;;;;;;7363731;19;20002;-74
2022/12/21 10:28:41;;;;;;;7.45;3.78;;;9.70;60.70;;;;;;7362802;19;20010;-74
2022/12/21 10:31:14;;;;;;;8.52;3.67;;;9.80;60.30;;;;;;7362449;19;20065;-73
2022/12/21 10:33:46;;;;;;;5.80;3.97;;;9.80;59.80;;;;;;7366140;19;20138;-72
2022/12/21 10:36:18;;;;;;;5.32;3.38;;;9.70;58.30;;;;;;7368577;19;20072;-70
2022/12/21 10:38:48;;;;;;;5.88;3.60;;;9.80;58.20;;;;;;7367019;19;20101;-72
2022/12/21 10:41:22;;;;;;;4.93;3.22;;;9.80;56.60;;;;;;7390394;19;20031;-72
2022/12/21 10:43:56;;;;;;;6.57;3.23;;;9.80;56.30;;;;;;7365255;19;20621;-70
2022/12/21 10:46:35;;;;;;;6.18;3.70;;;9.90;55.60;;;;;;7364291;19;20023;-72
2022/12/21 10:49:15;;;;;;;5.65;3.60;;;10.00;53.90;;;;;;7363737;19;20026;-72
2022/12/21 10:51:46;;;;;;;5.03;3.15;;;10.10;53.50;;;;;;7367846;19;20517;-72
2022/12/21 10:54:16;;;;;;;7.18;3.90;;;10.00;52.00;;;;;;7367349;19;20078;-72
2022/12/21 10:56:49;;;;;;;6.10;3.70;;;10.10;51.60;;;;;;7367005;19;20057;-73
2022/12/21 10:59:26;;;;;;;5.90;3.83;;;10.30;49.50;;;;;;7387297;19;20015;-71
2022/12/21 11:01:56;;;;;;;9.63;4.40;;;10.50;48.40;;;;;;7367384;19;20014;-72
2022/12/21 11:04:33;;;;;;;8.98;4.25;;;10.70;46.70;;;;;;7366377;19;20006;-72
2022/12/21 11:07:05;;;;;;;8.07;2.95;;;10.90;44.70;;;;;;7366114;19;20022;-73
2022/12/21 11:10:00;;;;;;;6.10;3.33;;;10.90;42.00;;;;;;7365575;19;20016;-72
2022/12/21 11:12:53;;;;;;;3.33;2.55;;;10.90;40.40;;;;;;7365676;19;20123;-74
2022/12/21 11:15:27;;;;;;;3.83;2.92;;;10.90;39.60;;;;;;7364890;19;20017;-73
2022/12/21 11:18:35;;;;;;;4.78;2.53;;;10.80;38.30;;;;;;7364741;19;20021;-72
2022/12/21 11:21:08;;;;;;;3.83;2.22;;;11.00;38.00;;;;;;7365926;19;20528;-73
2022/12/21 11:23:38;;;;;;;4.93;2.67;;;11.10;36.40;;;;;;7388080;19;20053;-73
2022/12/21 11:26:16;;;;;;;5.95;2.67;;;11.10;36.10;;;;;;7364423;19;20021;-72
2022/12/21 11:28:46;;;;;;;4.05;3.30;;;11.30;35.70;;;;;;7364006;19;20501;-71
2022/12/21 11:31:18;;;;;;;5.75;3.30;;;11.50;36.70;;;;;;7363773;19;20011;-73
2022/12/21 11:33:49;;;;;;;4.22;2.88;;;11.70;34.50;;;;;;7366280;19;20018;-73
2022/12/21 11:36:19;;;;;;;7.43;3.53;;;11.90;30.80;;;;;;7365357;19;20015;-72
2022/12/21 11:38:49;;;;;;;4.20;2.75;;;11.90;29.80;;;;;;7364222;19;20021;-72
2022/12/21 11:41:26;;;;;;;5.18;3.50;;;11.90;29.30;;;;;;7385678;19;20354;-73
2022/12/21 11:43:57;;;;;;;3.10;1.80;;;11.90;26.30;;;;;;7365409;19;20022;-73
2022/12/21 11:46:41;;;;;;;2.70;1.90;;;11.90;23.40;;;;;;7365045;19;20027;-73
2022/12/21 11:49:51;;;;;;;3.38;2.00;;;11.80;24.40;;;;;;7363315;19;20014;-72
2022/12/21 11:52:37;;;;;;;2.38;1.83;;;11.70;23.20;;;;;;7366067;19;20052;-72
2022/12/21 11:55:18;;;;;;;3.40;2.60;;;11.70;23.20;;;;;;7363888;19;20018;-72
2022/12/21 11:57:53;;;;;;;4.70;3.00;;;11.80;23.30;;;;;;7365174;19;20078;-72
2022/12/21 12:00:25;;;;;;;4.28;3.17;;;11.80;23.80;;;;;;7362026;19;20014;-72
2022/12/21 12:03:40;;;;;;;4.32;2.40;;;11.90;24.00;;;;;;7365493;19;20046;-72
2022/12/21 12:06:31;;;;;;;4.50;2.20;;;11.90;22.30;;;;;;7364134;19;20018;-72
2022/12/21 12:09:10;;;;;;;2.83;1.40;;;11.90;20.80;;;;;;7364204;19;20050;-71
2022/12/21 12:11:48;;;;;;;2.08;1.40;;;11.90;20.40;;;;;;7387198;19;20018;-71
2022/12/21 12:14:39;;;;;;;10.95;7.18;;;11.90;20.00;;;;;;7365144;19;20010;-73
2022/12/21 12:17:21;;;;;;;3.17;1.88;;;11.90;20.00;;;;;;7365187;19;20011;-74
2022/12/21 12:20:02;;;;;;;3.10;2.05;;;11.90;18.30;;;;;;7362784;19;20011;-72
2022/12/21 12:22:48;;;;;;;3.67;1.63;;;11.90;19.00;;;;;;7364568;19;20025;-71
2022/12/21 12:25:30;;;;;;;4.00;1.92;;;11.90;19.40;;;;;;7364369;19;20487;-72
2022/12/21 12:28:20;;;;;;;4.10;2.45;;;11.90;18.60;;;;;;7363521;19;20014;-73
2022/12/21 12:31:07;;;;;;;2.53;1.77;;;11.90;18.30;;;;;;7363189;19;20010;-73
2022/12/21 12:33:46;;;;;;;2.92;2.00;;;11.90;19.20;;;;;;7364223;19;20013;-72
2022/12/21 12:36:33;;;;;;;4.28;2.00;;;11.90;19.60;;;;;;7364252;19;20034;-74
2022/12/21 12:39:12;;;;;;;3.53;1.95;;;11.80;18.90;;;;;;7351882;19;20003;-72
2022/12/21 12:41:51;;;;;;;2.72;1.80;;;11.90;19.10;;;;;;7380457;19;20014;-78
2022/12/21 12:44:34;;;;;;;3.60;2.10;;;12.00;18.10;;;;;;7379448;19;20117;-73
2022/12/21 12:47:12;;;;;;;3.92;1.63;;;12.00;18.60;;;;;;7359715;19;20025;-71
2022/12/21 12:49:55;;;;;;;4.35;2.17;;;12.00;19.20;;;;;;7353353;19;20021;-73
2022/12/21 12:52:43;;;;;;;3.15;1.90;;;11.90;19.10;;;;;;7358357;19;20090;-70
2022/12/21 12:55:21;;;;;;;3.03;1.77;;;11.90;18.80;;;;;;7361399;19;20018;-72
2022/12/21 12:57:59;;;;;;;77.18;42.47;;;11.80;19.20;;;;;;7358571;19;20496;-72
2022/12/21 13:00:35;;;;;;;2.08;1.73;;;11.80;19.40;;;;;;7355977;19;20023;-71
2022/12/21 13:03:13;;;;;;;3.55;1.90;;;11.70;20.40;;;;;;7360764;19;20115;-72
2022/12/21 13:05:54;;;;;;;3.92;2.20;;;11.60;21.00;;;;;;7368660;19;20019;-73
2022/12/21 13:08:40;;;;;;;4.68;2.47;;;11.60;21.20;;;;;;7371073;19;20014;-72
2022/12/21 13:11:21;;;;;;;3.90;2.50;;;11.60;20.80;;;;;;7356281;19;20007;-73
2022/12/21 13:14:00;;;;;;;5.95;3.47;;;11.60;21.80;;;;;;7361025;19;20028;-73
2022/12/21 13:16:36;;;;;;;3.45;2.33;;;11.40;23.00;;;;;;7356699;19;20007;-72
2022/12/21 13:19:09;;;;;;;3.28;2.03;;;11.50;23.10;;;;;;7349408;19;20498;-74
2022/12/21 13:21:42;;;;;;;3.05;2.20;;;11.50;23.10;;;;;;7359517;19;20014;-72
2022/12/21 13:24:17;;;;;;;2.30;1.73;;;11.40;23.00;;;;;;7360057;19;20011;-73
2022/12/21 13:26:51;;;;;;;2.72;1.92;;;11.50;21.40;;;;;;7359167;19;20021;-73
2022/12/21 13:29:24;;;;;;;3.22;1.98;;;11.50;21.60;;;;;;7374336;19;20015;-73
2022/12/21 13:31:59;;;;;;;2.13;1.52;;;11.50;20.70;;;;;;7359494;19;20116;-72
2022/12/21 13:34:35;;;;;;;2.75;1.67;;;11.60;20.00;;;;;;7359623;19;20082;-73
2022/12/21 13:37:16;;;;;;;4.15;1.90;;;11.60;19.30;;;;;;7360086;19;20493;-73
2022/12/21 13:39:52;;;;;;;2.47;1.33;;;11.60;19.70;;;;;;7353357;19;20014;-72
2022/12/21 13:42:28;;;;;;;2.63;1.90;;;11.60;19.70;;;;;;7358948;19;20021;-73